sensor_id;sensor_type;location;lat;lon;timestamp;P1;durP1;ratioP1;P2;durP2;ratioP2
10473;SDS011;5284;50.446;7.904;2023-04-24T00:00:14;1.73;;;1.00;;
10473;SDS011;5284;50.446;7.904;2023-04-24T00:05:19;5.20;;;1.57;;
10473;SDS011;5284;50.446;7.904;2023-04-24T00:10:22;10.40;;;1.13;;
10473;SDS011;5284;50.446;7.904;2023-04-24T00:15:26;4.53;;;1.58;;
10473;SDS011;5284;50.446;7.904;2023-04-24T00:20:29;7.15;;;1.50;;
10473;SDS011;5284;50.446;7.904;2023-04-24T00:25:33;3.08;;;1.40;;
10473;SDS011;5284;50.446;7.904;2023-04-24T00:30:37;3.17;;;1.50;;
10473;SDS011;5284;50.446;7.904;2023-04-24T00:35:40;2.55;;;1.23;;
10473;SDS011;5284;50.446;7.904;2023-04-24T00:40:45;7.63;;;1.13;;
10473;SDS011;5284;50.446;7.904;2023-04-24T00:45:50;2.55;;;1.27;;
10473;SDS011;5284;50.446;7.904;2023-04-24T00:50:53;5.45;;;1.25;;
10473;SDS011;5284;50.446;7.904;2023-04-24T00:55:56;4.10;;;0.93;;
10473;SDS011;5284;50.446;7.904;2023-04-24T01:01:00;1.67;;;0.90;;
10473;SDS011;5284;50.446;7.904;2023-04-24T01:06:04;5.47;;;1.58;;
10473;SDS011;5284;50.446;7.904;2023-04-24T01:11:07;1.65;;;1.15;;
10473;SDS011;5284;50.446;7.904;2023-04-24T01:16:11;5.28;;;1.25;;
10473;SDS011;5284;50.446;7.904;2023-04-24T01:21:15;2.53;;;0.93;;
10473;SDS011;5284;50.446;7.904;2023-04-24T01:26:20;1.38;;;0.85;;
10473;SDS011;5284;50.446;7.904;2023-04-24T01:31:22;2.20;;;0.95;;
10473;SDS011;5284;50.446;7.904;2023-04-24T01:36:25;0.73;;;0.60;;
10473;SDS011;5284;50.446;7.904;2023-04-24T01:41:32;3.25;;;0.73;;
10473;SDS011;5284;50.446;7.904;2023-04-24T01:46:35;4.40;;;0.70;;
10473;SDS011;5284;50.446;7.904;2023-04-24T01:51:38;4.70;;;1.00;;
10473;SDS011;5284;50.446;7.904;2023-04-24T01:56:43;2.58;;;0.70;;
10473;SDS011;5284;50.446;7.904;2023-04-24T02:01:46;0.80;;;0.80;;
10473;SDS011;5284;50.446;7.904;2023-04-24T02:06:48;1.17;;;0.60;;
10473;SDS011;5284;50.446;7.904;2023-04-24T02:11:53;0.85;;;0.57;;
10473;SDS011;5284;50.446;7.904;2023-04-24T02:16:56;1.00;;;0.68;;
10473;SDS011;5284;50.446;7.904;2023-04-24T02:21:59;0.70;;;0.70;;
10473;SDS011;5284;50.446;7.904;2023-04-24T02:27:03;3.55;;;0.80;;
10473;SDS011;5284;50.446;7.904;2023-04-24T02:32:07;1.50;;;0.85;;
10473;SDS011;5284;50.446;7.904;2023-04-24T02:37:12;4.70;;;1.08;;
10473;SDS011;5284;50.446;7.904;2023-04-24T02:42:18;5.85;;;0.70;;
10473;SDS011;5284;50.446;7.904;2023-04-24T02:47:21;4.00;;;0.90;;
10473;SDS011;5284;50.446;7.904;2023-04-24T02:52:24;3.60;;;1.20;;
10473;SDS011;5284;50.446;7.904;2023-04-24T02:57:28;1.10;;;1.00;;
10473;SDS011;5284;50.446;7.904;2023-04-24T03:02:31;2.65;;;0.80;;
10473;SDS011;5284;50.446;7.904;2023-04-24T03:07:34;2.22;;;1.13;;
10473;SDS011;5284;50.446;7.904;2023-04-24T03:12:38;7.60;;;1.17;;
10473;SDS011;5284;50.446;7.904;2023-04-24T03:17:41;1.83;;;1.23;;
10473;SDS011;5284;50.446;7.904;2023-04-24T03:22:43;2.20;;;1.30;;
10473;SDS011;5284;50.446;7.904;2023-04-24T03:27:48;2.20;;;1.35;;
10473;SDS011;5284;50.446;7.904;2023-04-24T03:33:02;5.93;;;1.65;;
10473;SDS011;5284;50.446;7.904;2023-04-24T03:38:09;3.03;;;1.85;;
10473;SDS011;5284;50.446;7.904;2023-04-24T03:43:28;3.55;;;1.48;;
10473;SDS011;5284;50.446;7.904;2023-04-24T03:48:34;4.30;;;1.85;;
10473;SDS011;5284;50.446;7.904;2023-04-24T03:53:37;11.27;;;1.60;;
10473;SDS011;5284;50.446;7.904;2023-04-24T03:58:42;2.65;;;1.55;;
10473;SDS011;5284;50.446;7.904;2023-04-24T04:03:45;3.50;;;1.60;;
10473;SDS011;5284;50.446;7.904;2023-04-24T04:08:53;4.88;;;2.05;;
10473;SDS011;5284;50.446;7.904;2023-04-24T04:13:57;7.00;;;2.47;;
10473;SDS011;5284;50.446;7.904;2023-04-24T04:19:00;6.53;;;1.67;;
10473;SDS011;5284;50.446;7.904;2023-04-24T04:24:04;3.67;;;2.20;;
10473;SDS011;5284;50.446;7.904;2023-04-24T04:29:14;3.75;;;2.50;;
10473;SDS011;5284;50.446;7.904;2023-04-24T04:34:22;5.70;;;2.22;;
10473;SDS011;5284;50.446;7.904;2023-04-24T04:39:25;3.90;;;2.72;;
10473;SDS011;5284;50.446;7.904;2023-04-24T04:44:41;14.98;;;2.72;;
10473;SDS011;5284;50.446;7.904;2023-04-24T04:49:50;4.72;;;2.67;;
10473;SDS011;5284;50.446;7.904;2023-04-24T04:54:57;9.43;;;2.78;;
10473;SDS011;5284;50.446;7.904;2023-04-24T05:00:22;6.00;;;2.40;;
10473;SDS011;5284;50.446;7.904;2023-04-24T05:05:27;3.13;;;2.30;;
10473;SDS011;5284;50.446;7.904;2023-04-24T05:10:30;5.50;;;2.90;;
10473;SDS011;5284;50.446;7.904;2023-04-24T05:15:35;3.03;;;2.28;;
10473;SDS011;5284;50.446;7.904;2023-04-24T05:20:38;4.80;;;2.92;;
10473;SDS011;5284;50.446;7.904;2023-04-24T05:25:41;9.40;;;3.55;;
10473;SDS011;5284;50.446;7.904;2023-04-24T05:30:48;7.45;;;3.53;;
10473;SDS011;5284;50.446;7.904;2023-04-24T05:35:53;5.17;;;3.20;;
10473;SDS011;5284;50.446;7.904;2023-04-24T05:40:59;5.35;;;2.92;;
10473;SDS011;5284;50.446;7.904;2023-04-24T05:46:03;8.10;;;3.65;;
10473;SDS011;5284;50.446;7.904;2023-04-24T05:51:07;6.88;;;3.00;;
10473;SDS011;5284;50.446;7.904;2023-04-24T05:56:10;4.65;;;3.30;;
10473;SDS011;5284;50.446;7.904;2023-04-24T06:01:14;6.80;;;3.88;;
10473;SDS011;5284;50.446;7.904;2023-04-24T06:06:21;8.75;;;3.83;;
10473;SDS011;5284;50.446;7.904;2023-04-24T06:11:24;10.98;;;3.70;;
10473;SDS011;5284;50.446;7.904;2023-04-24T06:16:30;7.55;;;4.00;;
10473;SDS011;5284;50.446;7.904;2023-04-24T06:21:40;8.07;;;3.10;;
10473;SDS011;5284;50.446;7.904;2023-04-24T06:26:43;7.38;;;3.92;;
10473;SDS011;5284;50.446;7.904;2023-04-24T06:31:49;8.60;;;4.15;;
10473;SDS011;5284;50.446;7.904;2023-04-24T06:36:54;10.30;;;3.80;;
10473;SDS011;5284;50.446;7.904;2023-04-24T06:41:58;7.53;;;3.85;;
10473;SDS011;5284;50.446;7.904;2023-04-24T06:47:03;12.05;;;4.45;;
10473;SDS011;5284;50.446;7.904;2023-04-24T06:52:06;7.50;;;4.18;;
10473;SDS011;5284;50.446;7.904;2023-04-24T06:57:09;9.05;;;3.75;;
10473;SDS011;5284;50.446;7.904;2023-04-24T07:02:15;11.93;;;3.80;;
10473;SDS011;5284;50.446;7.904;2023-04-24T07:07:18;6.07;;;3.42;;
10473;SDS011;5284;50.446;7.904;2023-04-24T07:12:24;6.60;;;4.40;;
10473;SDS011;5284;50.446;7.904;2023-04-24T07:17:29;7.20;;;3.90;;
10473;SDS011;5284;50.446;7.904;2023-04-24T07:22:31;5.85;;;3.72;;
10473;SDS011;5284;50.446;7.904;2023-04-24T07:27:35;10.98;;;5.85;;
10473;SDS011;5284;50.446;7.904;2023-04-24T07:32:39;5.20;;;3.15;;
10473;SDS011;5284;50.446;7.904;2023-04-24T07:37:42;7.13;;;4.03;;
10473;SDS011;5284;50.446;7.904;2023-04-24T07:42:49;7.13;;;3.15;;
10473;SDS011;5284;50.446;7.904;2023-04-24T07:47:54;7.03;;;4.07;;
10473;SDS011;5284;50.446;7.904;2023-04-24T07:52:58;11.10;;;2.67;;
10473;SDS011;5284;50.446;7.904;2023-04-24T07:58:01;3.83;;;2.65;;
10473;SDS011;5284;50.446;7.904;2023-04-24T08:03:05;6.18;;;3.65;;
10473;SDS011;5284;50.446;7.904;2023-04-24T08:08:09;7.53;;;3.13;;
10473;SDS011;5284;50.446;7.904;2023-04-24T08:13:12;7.68;;;4.50;;
10473;SDS011;5284;50.446;7.904;2023-04-24T08:18:18;3.85;;;2.67;;
10473;SDS011;5284;50.446;7.904;2023-04-24T08:23:22;3.13;;;2.17;;
10473;SDS011;5284;50.446;7.904;2023-04-24T08:28:25;3.72;;;2.50;;
10473;SDS011;5284;50.446;7.904;2023-04-24T08:33:29;4.75;;;1.83;;
10473;SDS011;5284;50.446;7.904;2023-04-24T08:38:35;3.28;;;2.10;;
10473;SDS011;5284;50.446;7.904;2023-04-24T08:43:41;2.38;;;1.70;;
10473;SDS011;5284;50.446;7.904;2023-04-24T08:48:49;4.30;;;1.48;;
10473;SDS011;5284;50.446;7.904;2023-04-24T08:53:56;4.25;;;1.92;;
10473;SDS011;5284;50.446;7.904;2023-04-24T08:59:00;3.10;;;1.80;;
10473;SDS011;5284;50.446;7.904;2023-04-24T09:04:05;7.97;;;2.40;;
10473;SDS011;5284;50.446;7.904;2023-04-24T09:09:10;2.58;;;1.67;;
10473;SDS011;5284;50.446;7.904;2023-04-24T09:14:13;3.42;;;2.08;;
10473;SDS011;5284;50.446;7.904;2023-04-24T09:19:20;6.97;;;1.40;;
10473;SDS011;5284;50.446;7.904;2023-04-24T09:24:23;4.95;;;2.13;;
10473;SDS011;5284;50.446;7.904;2023-04-24T09:29:28;4.55;;;2.20;;
10473;SDS011;5284;50.446;7.904;2023-04-24T09:34:32;2.72;;;1.73;;
10473;SDS011;5284;50.446;7.904;2023-04-24T09:39:36;3.58;;;2.42;;
10473;SDS011;5284;50.446;7.904;2023-04-24T09:44:41;3.67;;;1.73;;
10473;SDS011;5284;50.446;7.904;2023-04-24T09:49:46;4.18;;;2.38;;
10473;SDS011;5284;50.446;7.904;2023-04-24T09:54:52;14.65;;;3.42;;
10473;SDS011;5284;50.446;7.904;2023-04-24T09:59:56;3.20;;;1.73;;
10473;SDS011;5284;50.446;7.904;2023-04-24T10:05:13;3.78;;;1.55;;
10473;SDS011;5284;50.446;7.904;2023-04-24T10:10:17;1.65;;;1.30;;
10473;SDS011;5284;50.446;7.904;2023-04-24T10:15:21;2.65;;;1.70;;
10473;SDS011;5284;50.446;7.904;2023-04-24T10:20:27;4.80;;;1.85;;
10473;SDS011;5284;50.446;7.904;2023-04-24T10:25:34;4.53;;;1.70;;
10473;SDS011;5284;50.446;7.904;2023-04-24T10:30:38;1.67;;;1.25;;
10473;SDS011;5284;50.446;7.904;2023-04-24T10:35:47;2.33;;;1.37;;
10473;SDS011;5284;50.446;7.904;2023-04-24T10:40:57;1.20;;;1.00;;
10473;SDS011;5284;50.446;7.904;2023-04-24T10:46:08;1.40;;;1.10;;
10473;SDS011;5284;50.446;7.904;2023-04-24T10:51:16;10.48;;;1.25;;
10473;SDS011;5284;50.446;7.904;2023-04-24T10:56:21;1.80;;;0.90;;
10473;SDS011;5284;50.446;7.904;2023-04-24T11:01:24;1.77;;;0.98;;
10473;SDS011;5284;50.446;7.904;2023-04-24T11:06:30;1.70;;;1.30;;
10473;SDS011;5284;50.446;7.904;2023-04-24T11:11:35;3.42;;;1.20;;
10473;SDS011;5284;50.446;7.904;2023-04-24T11:16:44;2.25;;;1.00;;
10473;SDS011;5284;50.446;7.904;2023-04-24T11:21:55;1.43;;;1.20;;
10473;SDS011;5284;50.446;7.904;2023-04-24T11:27:05;1.15;;;0.98;;
10473;SDS011;5284;50.446;7.904;2023-04-24T11:32:23;1.33;;;0.93;;
10473;SDS011;5284;50.446;7.904;2023-04-24T11:37:34;4.38;;;2.10;;
10473;SDS011;5284;50.446;7.904;2023-04-24T11:42:41;3.75;;;1.20;;
10473;SDS011;5284;50.446;7.904;2023-04-24T11:47:45;1.58;;;1.10;;
10473;SDS011;5284;50.446;7.904;2023-04-24T11:52:50;3.28;;;1.10;;
10473;SDS011;5284;50.446;7.904;2023-04-24T11:57:55;5.97;;;1.52;;
10473;SDS011;5284;50.446;7.904;2023-04-24T12:03:04;2.13;;;1.30;;
10473;SDS011;5284;50.446;7.904;2023-04-24T12:08:12;3.50;;;1.42;;
10473;SDS011;5284;50.446;7.904;2023-04-24T12:13:30;2.05;;;1.80;;
10473;SDS011;5284;50.446;7.904;2023-04-24T12:18:34;4.13;;;1.40;;
10473;SDS011;5284;50.446;7.904;2023-04-24T12:23:38;1.95;;;1.30;;
10473;SDS011;5284;50.446;7.904;2023-04-24T12:28:42;2.03;;;1.52;;
10473;SDS011;5284;50.446;7.904;2023-04-24T12:33:51;3.25;;;2.10;;
10473;SDS011;5284;50.446;7.904;2023-04-24T12:38:56;6.50;;;2.42;;
10473;SDS011;5284;50.446;7.904;2023-04-24T12:43:59;5.45;;;2.90;;
10473;SDS011;5284;50.446;7.904;2023-04-24T12:49:03;4.93;;;2.72;;
10473;SDS011;5284;50.446;7.904;2023-04-24T12:54:11;13.70;;;3.50;;
10473;SDS011;5284;50.446;7.904;2023-04-24T12:59:16;6.50;;;4.03;;
10473;SDS011;5284;50.446;7.904;2023-04-24T13:04:19;10.95;;;3.78;;
10473;SDS011;5284;50.446;7.904;2023-04-24T13:09:24;12.40;;;4.82;;
10473;SDS011;5284;50.446;7.904;2023-04-24T13:14:27;14.52;;;3.90;;
10473;SDS011;5284;50.446;7.904;2023-04-24T13:19:35;16.80;;;3.85;;
10473;SDS011;5284;50.446;7.904;2023-04-24T13:24:39;9.00;;;3.38;;
10473;SDS011;5284;50.446;7.904;2023-04-24T13:29:44;6.72;;;2.70;;
10473;SDS011;5284;50.446;7.904;2023-04-24T13:34:50;8.32;;;3.20;;
10473;SDS011;5284;50.446;7.904;2023-04-24T13:39:55;15.55;;;4.60;;
10473;SDS011;5284;50.446;7.904;2023-04-24T13:44:58;8.77;;;3.00;;
10473;SDS011;5284;50.446;7.904;2023-04-24T13:50:14;4.93;;;3.60;;
10473;SDS011;5284;50.446;7.904;2023-04-24T13:55:18;10.15;;;4.07;;
10473;SDS011;5284;50.446;7.904;2023-04-24T14:00:22;7.97;;;3.60;;
10473;SDS011;5284;50.446;7.904;2023-04-24T14:05:25;8.00;;;3.47;;
10473;SDS011;5284;50.446;7.904;2023-04-24T14:10:30;12.70;;;4.15;;
10473;SDS011;5284;50.446;7.904;2023-04-24T14:15:33;9.55;;;3.90;;
10473;SDS011;5284;50.446;7.904;2023-04-24T14:20:39;12.18;;;3.70;;
10473;SDS011;5284;50.446;7.904;2023-04-24T14:25:43;11.18;;;3.92;;
10473;SDS011;5284;50.446;7.904;2023-04-24T14:30:47;14.25;;;4.32;;
10473;SDS011;5284;50.446;7.904;2023-04-24T14:35:50;9.38;;;5.40;;
10473;SDS011;5284;50.446;7.904;2023-04-24T14:40:56;11.43;;;4.72;;
10473;SDS011;5284;50.446;7.904;2023-04-24T14:46:08;10.35;;;3.80;;
10473;SDS011;5284;50.446;7.904;2023-04-24T14:51:11;8.32;;;4.03;;
10473;SDS011;5284;50.446;7.904;2023-04-24T14:56:19;6.83;;;4.10;;
10473;SDS011;5284;50.446;7.904;2023-04-24T15:01:23;15.90;;;4.32;;
10473;SDS011;5284;50.446;7.904;2023-04-24T15:06:27;8.60;;;3.25;;
10473;SDS011;5284;50.446;7.904;2023-04-24T15:11:34;12.05;;;4.28;;
10473;SDS011;5284;50.446;7.904;2023-04-24T15:16:37;10.75;;;3.67;;
10473;SDS011;5284;50.446;7.904;2023-04-24T15:21:42;8.48;;;4.63;;
10473;SDS011;5284;50.446;7.904;2023-04-24T15:26:48;25.73;;;10.25;;
10473;SDS011;5284;50.446;7.904;2023-04-24T15:31:51;24.83;;;10.73;;
10473;SDS011;5284;50.446;7.904;2023-04-24T15:36:54;11.48;;;4.65;;
10473;SDS011;5284;50.446;7.904;2023-04-24T15:42:00;17.05;;;7.50;;
10473;SDS011;5284;50.446;7.904;2023-04-24T15:47:03;7.55;;;4.05;;
10473;SDS011;5284;50.446;7.904;2023-04-24T15:52:06;5.32;;;3.03;;
10473;SDS011;5284;50.446;7.904;2023-04-24T15:57:12;8.23;;;3.58;;
10473;SDS011;5284;50.446;7.904;2023-04-24T16:02:14;52.70;;;18.73;;
10473;SDS011;5284;50.446;7.904;2023-04-24T16:07:21;26.30;;;13.63;;
10473;SDS011;5284;50.446;7.904;2023-04-24T16:12:28;8.85;;;3.45;;
10473;SDS011;5284;50.446;7.904;2023-04-24T16:17:30;11.90;;;3.90;;
10473;SDS011;5284;50.446;7.904;2023-04-24T16:22:37;7.65;;;3.75;;
10473;SDS011;5284;50.446;7.904;2023-04-24T16:27:42;7.95;;;2.78;;
10473;SDS011;5284;50.446;7.904;2023-04-24T16:32:47;7.75;;;2.97;;
10473;SDS011;5284;50.446;7.904;2023-04-24T16:37:50;19.35;;;2.30;;
10473;SDS011;5284;50.446;7.904;2023-04-24T16:42:54;5.68;;;2.35;;
10473;SDS011;5284;50.446;7.904;2023-04-24T16:47:57;4.57;;;2.72;;
10473;SDS011;5284;50.446;7.904;2023-04-24T16:53:01;4.35;;;3.08;;
10473;SDS011;5284;50.446;7.904;2023-04-24T16:58:06;4.93;;;2.80;;
10473;SDS011;5284;50.446;7.904;2023-04-24T17:03:09;9.32;;;3.40;;
10473;SDS011;5284;50.446;7.904;2023-04-24T17:08:16;5.23;;;3.73;;
10473;SDS011;5284;50.446;7.904;2023-04-24T17:13:21;18.27;;;6.78;;
10473;SDS011;5284;50.446;7.904;2023-04-24T17:18:25;9.68;;;4.18;;
10473;SDS011;5284;50.446;7.904;2023-04-24T17:23:28;8.82;;;4.15;;
10473;SDS011;5284;50.446;7.904;2023-04-24T17:28:34;15.38;;;5.18;;
10473;SDS011;5284;50.446;7.904;2023-04-24T17:33:37;8.63;;;4.13;;
10473;SDS011;5284;50.446;7.904;2023-04-24T17:38:40;10.85;;;4.72;;
10473;SDS011;5284;50.446;7.904;2023-04-24T17:43:45;13.45;;;5.88;;
10473;SDS011;5284;50.446;7.904;2023-04-24T17:48:47;9.60;;;4.75;;
10473;SDS011;5284;50.446;7.904;2023-04-24T17:53:51;9.68;;;5.57;;
10473;SDS011;5284;50.446;7.904;2023-04-24T17:58:58;11.68;;;5.93;;
10473;SDS011;5284;50.446;7.904;2023-04-24T18:04:01;13.77;;;7.45;;
10473;SDS011;5284;50.446;7.904;2023-04-24T18:09:05;11.82;;;5.35;;
10473;SDS011;5284;50.446;7.904;2023-04-24T18:14:11;11.70;;;6.75;;
10473;SDS011;5284;50.446;7.904;2023-04-24T18:19:13;9.20;;;5.13;;
10473;SDS011;5284;50.446;7.904;2023-04-24T18:24:19;14.45;;;6.95;;
10473;SDS011;5284;50.446;7.904;2023-04-24T18:29:24;14.45;;;6.57;;
10473;SDS011;5284;50.446;7.904;2023-04-24T18:34:26;18.05;;;6.60;;
10473;SDS011;5284;50.446;7.904;2023-04-24T18:39:33;10.23;;;5.95;;
10473;SDS011;5284;50.446;7.904;2023-04-24T18:44:38;13.02;;;7.10;;
10473;SDS011;5284;50.446;7.904;2023-04-24T18:49:43;14.85;;;7.03;;
10473;SDS011;5284;50.446;7.904;2023-04-24T18:54:46;16.75;;;6.47;;
10473;SDS011;5284;50.446;7.904;2023-04-24T18:59:51;20.67;;;6.05;;
10473;SDS011;5284;50.446;7.904;2023-04-24T19:04:54;17.10;;;7.85;;
10473;SDS011;5284;50.446;7.904;2023-04-24T19:09:59;13.88;;;6.13;;
10473;SDS011;5284;50.446;7.904;2023-04-24T19:15:04;20.65;;;8.90;;
10473;SDS011;5284;50.446;7.904;2023-04-24T19:20:11;17.02;;;8.10;;
10473;SDS011;5284;50.446;7.904;2023-04-24T19:25:14;14.30;;;7.25;;
10473;SDS011;5284;50.446;7.904;2023-04-24T19:30:19;12.60;;;6.22;;
10473;SDS011;5284;50.446;7.904;2023-04-24T19:35:22;15.63;;;7.32;;
10473;SDS011;5284;50.446;7.904;2023-04-24T19:40:25;12.10;;;7.32;;
10473;SDS011;5284;50.446;7.904;2023-04-24T19:45:30;13.95;;;8.55;;
10473;SDS011;5284;50.446;7.904;2023-04-24T19:50:32;17.60;;;9.75;;
10473;SDS011;5284;50.446;7.904;2023-04-24T19:55:36;20.92;;;9.13;;
10473;SDS011;5284;50.446;7.904;2023-04-24T20:00:40;17.05;;;8.88;;
10473;SDS011;5284;50.446;7.904;2023-04-24T20:05:45;28.00;;;9.15;;
10473;SDS011;5284;50.446;7.904;2023-04-24T20:10:48;19.25;;;10.75;;
10473;SDS011;5284;50.446;7.904;2023-04-24T20:15:54;17.83;;;8.90;;
10473;SDS011;5284;50.446;7.904;2023-04-24T20:20:56;18.52;;;9.07;;
10473;SDS011;5284;50.446;7.904;2023-04-24T20:26:00;19.48;;;8.70;;
10473;SDS011;5284;50.446;7.904;2023-04-24T20:31:07;17.23;;;8.50;;
10473;SDS011;5284;50.446;7.904;2023-04-24T20:36:10;16.38;;;8.25;;
10473;SDS011;5284;50.446;7.904;2023-04-24T20:41:12;19.80;;;7.90;;
10473;SDS011;5284;50.446;7.904;2023-04-24T20:46:17;21.10;;;8.82;;
10473;SDS011;5284;50.446;7.904;2023-04-24T20:51:20;12.30;;;7.10;;
10473;SDS011;5284;50.446;7.904;2023-04-24T20:56:23;13.95;;;8.45;;
10473;SDS011;5284;50.446;7.904;2023-04-24T21:01:28;20.65;;;9.70;;
10473;SDS011;5284;50.446;7.904;2023-04-24T21:06:31;18.98;;;10.23;;
10473;SDS011;5284;50.446;7.904;2023-04-24T21:11:34;23.60;;;10.18;;
10473;SDS011;5284;50.446;7.904;2023-04-24T21:16:40;18.23;;;8.48;;
10473;SDS011;5284;50.446;7.904;2023-04-24T21:21:43;17.38;;;8.38;;
10473;SDS011;5284;50.446;7.904;2023-04-24T21:26:46;13.15;;;8.10;;
10473;SDS011;5284;50.446;7.904;2023-04-24T21:31:52;14.82;;;7.07;;
10473;SDS011;5284;50.446;7.904;2023-04-24T21:36:56;16.13;;;8.30;;
10473;SDS011;5284;50.446;7.904;2023-04-24T21:41:58;14.20;;;8.40;;
10473;SDS011;5284;50.446;7.904;2023-04-24T21:47:02;15.23;;;7.38;;
10473;SDS011;5284;50.446;7.904;2023-04-24T21:52:06;17.48;;;7.97;;
10473;SDS011;5284;50.446;7.904;2023-04-24T21:57:09;11.85;;;6.85;;
10473;SDS011;5284;50.446;7.904;2023-04-24T22:02:13;15.77;;;7.50;;
10473;SDS011;5284;50.446;7.904;2023-04-24T22:07:16;18.02;;;8.88;;
10473;SDS011;5284;50.446;7.904;2023-04-24T22:12:19;19.48;;;10.80;;
10473;SDS011;5284;50.446;7.904;2023-04-24T22:17:23;21.63;;;10.20;;
10473;SDS011;5284;50.446;7.904;2023-04-24T22:22:26;22.02;;;12.27;;
10473;SDS011;5284;50.446;7.904;2023-04-24T22:27:29;25.90;;;12.07;;
10473;SDS011;5284;50.446;7.904;2023-04-24T22:32:37;31.13;;;13.30;;
10473;SDS011;5284;50.446;7.904;2023-04-24T22:37:40;23.35;;;12.27;;
10473;SDS011;5284;50.446;7.904;2023-04-24T22:42:43;20.83;;;9.88;;
10473;SDS011;5284;50.446;7.904;2023-04-24T22:47:47;20.88;;;8.40;;
10473;SDS011;5284;50.446;7.904;2023-04-24T22:52:51;21.05;;;8.60;;
10473;SDS011;5284;50.446;7.904;2023-04-24T22:57:54;24.55;;;9.50;;
10473;SDS011;5284;50.446;7.904;2023-04-24T23:02:59;34.58;;;9.40;;
10473;SDS011;5284;50.446;7.904;2023-04-24T23:08:02;21.50;;;9.40;;
10473;SDS011;5284;50.446;7.904;2023-04-24T23:13:05;17.25;;;8.00;;
10473;SDS011;5284;50.446;7.904;2023-04-24T23:18:09;18.95;;;9.05;;
10473;SDS011;5284;50.446;7.904;2023-04-24T23:23:12;16.13;;;7.25;;
10473;SDS011;5284;50.446;7.904;2023-04-24T23:28:16;21.25;;;6.70;;
10473;SDS011;5284;50.446;7.904;2023-04-24T23:33:20;19.30;;;8.18;;
10473;SDS011;5284;50.446;7.904;2023-04-24T23:38:23;18.85;;;8.30;;
10473;SDS011;5284;50.446;7.904;2023-04-24T23:43:28;24.60;;;9.32;;
10473;SDS011;5284;50.446;7.904;2023-04-24T23:48:33;20.77;;;8.23;;
10473;SDS011;5284;50.446;7.904;2023-04-24T23:53:37;28.05;;;10.95;;
10473;SDS011;5284;50.446;7.904;2023-04-24T23:58:40;19.30;;;8.88;;
